createdAt,value
2022-08-30T00:01:33.757Z,20.27
2022-08-30T00:04:02.374Z,20.25
2022-08-30T00:06:30.926Z,20.23
2022-08-30T00:08:58.394Z,20.16
2022-08-30T00:11:28.785Z,20.12
2022-08-30T00:13:57.005Z,20.10
2022-08-30T00:16:25.522Z,20.11
2022-08-30T00:18:53.883Z,20.09
2022-08-30T00:21:22.154Z,20.08
2022-08-30T00:23:49.622Z,20.09
2022-08-30T00:26:17.135Z,20.11
2022-08-30T00:28:44.624Z,19.99
2022-08-30T00:31:15.140Z,20.14
2022-08-30T00:33:44.751Z,20.06
2022-08-30T00:36:12.102Z,19.69
2022-08-30T00:38:39.822Z,20.19
2022-08-30T00:41:07.262Z,20.15
2022-08-30T00:43:36.861Z,20.23
2022-08-30T00:46:08.415Z,20.08
2022-08-30T00:48:45.590Z,20.12
2022-08-30T00:51:15.665Z,19.76
2022-08-30T00:53:48.471Z,20.13
2022-08-30T00:56:18.213Z,20.04
2022-08-30T00:58:56.036Z,20.09
2022-08-30T01:01:23.888Z,20.11
2022-08-30T01:03:51.485Z,20.11
2022-08-30T01:06:19.303Z,20.04
2022-08-30T01:08:47.750Z,20.07
2022-08-30T01:11:20.235Z,20.12
2022-08-30T01:13:49.148Z,19.65
2022-08-30T01:16:16.905Z,20.11
2022-08-30T01:18:44.711Z,20.07
2022-08-30T01:21:22.891Z,19.96
2022-08-30T01:23:53.886Z,20.12
2022-08-30T01:26:22.338Z,20.12
2022-08-30T01:28:55.214Z,20.01
2022-08-30T01:31:23.629Z,20.08
2022-08-30T01:33:51.213Z,20.14
2022-08-30T01:36:20.322Z,20.16
2022-08-30T01:38:49.342Z,20.10
2022-08-30T01:41:29.286Z,20.13
2022-08-30T01:44:01.097Z,20.02
2022-08-30T01:46:42.501Z,19.57
2022-08-30T01:49:13.205Z,20.10
2022-08-30T01:51:41.426Z,19.64
2022-08-30T01:54:09.288Z,19.99
2022-08-30T01:56:37.076Z,19.34
2022-08-30T01:59:05.140Z,20.00
2022-08-30T02:01:37.305Z,19.98
2022-08-30T02:04:05.896Z,19.87
2022-08-30T02:06:33.572Z,19.88
2022-08-30T02:09:01.895Z,19.85
2022-08-30T02:11:29.835Z,19.77
2022-08-30T02:13:57.656Z,19.63
2022-08-30T02:16:26.406Z,19.68
2022-08-30T02:18:56.349Z,19.54
2022-08-30T02:21:25.126Z,19.51
2022-08-30T02:23:52.887Z,19.47
2022-08-30T02:26:21.082Z,19.45
2022-08-30T02:28:49.591Z,19.42
2022-08-30T02:31:20.961Z,19.38
2022-08-30T02:33:50.899Z,19.35
2022-08-30T02:36:21.038Z,19.26
2022-08-30T02:38:50.512Z,19.16
2022-08-30T02:41:19.257Z,18.73
2022-08-30T02:43:47.453Z,19.27
2022-08-30T02:46:15.076Z,19.22
2022-08-30T02:48:43.197Z,19.26
2022-08-30T02:51:13.820Z,19.21
2022-08-30T02:53:43.938Z,19.31
2022-08-30T02:56:12.926Z,19.35
2022-08-30T02:58:42.688Z,18.88
2022-08-30T03:01:13.186Z,19.41
2022-08-30T03:03:42.262Z,19.52
2022-08-30T03:06:10.858Z,19.61
2022-08-30T03:08:38.385Z,19.62
2022-08-30T03:11:06.373Z,19.49
2022-08-30T03:13:34.540Z,20.01
2022-08-30T03:16:02.505Z,20.10
2022-08-30T03:18:29.949Z,20.32
2022-08-30T03:20:57.495Z,20.50
2022-08-30T03:23:25.139Z,20.32
2022-08-30T03:25:53.689Z,21.59
2022-08-30T03:28:21.456Z,21.98
2022-08-30T03:30:48.921Z,22.20
2022-08-30T03:33:18.469Z,22.14
2022-08-30T03:35:46.244Z,22.48
2022-08-30T03:38:13.709Z,22.56
2022-08-30T03:40:41.640Z,22.67
2022-08-30T03:43:10.274Z,22.71
2022-08-30T03:45:38.929Z,22.79
2022-08-30T03:48:06.626Z,22.99
2022-08-30T03:50:35.589Z,23.19
2022-08-30T03:53:03.034Z,22.90
2022-08-30T03:55:30.869Z,23.65
2022-08-30T03:57:58.292Z,24.08
2022-08-30T04:00:26.533Z,23.74
2022-08-30T04:02:53.862Z,24.90
2022-08-30T04:05:21.874Z,25.53
2022-08-30T04:07:49.398Z,26.38
2022-08-30T04:10:17.215Z,27.20
2022-08-30T04:12:49.392Z,27.65
2022-08-30T04:15:19.205Z,28.12
2022-08-30T04:17:47.918Z,28.69
2022-08-30T04:20:15.593Z,29.29
2022-08-30T04:22:43.069Z,30.05
2022-08-30T04:25:15.799Z,31.00
2022-08-30T04:27:45.687Z,32.01
2022-08-30T04:30:15.037Z,32.88
2022-08-30T04:32:43.237Z,33.64
2022-08-30T04:35:12.269Z,34.19
2022-08-30T04:37:41.051Z,34.71
2022-08-30T04:40:09.645Z,34.91
2022-08-30T04:42:38.537Z,35.47
2022-08-30T04:45:09.647Z,35.63
2022-08-30T04:47:39.285Z,35.61
2022-08-30T04:50:10.127Z,35.95
2022-08-30T04:52:38.088Z,36.47
2022-08-30T04:55:06.677Z,36.27
2022-08-30T04:57:34.411Z,36.24
2022-08-30T05:00:01.983Z,36.50
2022-08-30T05:02:30.174Z,36.90
2022-08-30T05:05:16.966Z,37.57
2022-08-30T05:07:44.254Z,38.25
2022-08-30T05:10:12.773Z,38.65
2022-08-30T05:12:41.070Z,38.60
2022-08-30T05:15:08.882Z,39.40
2022-08-30T05:17:38.264Z,39.66
2022-08-30T05:20:11.521Z,39.71
2022-08-30T05:22:52.286Z,40.50
2022-08-30T05:25:27.445Z,40.50
2022-08-30T05:27:55.389Z,40.88
2022-08-30T05:30:24.377Z,41.59
2022-08-30T05:32:52.507Z,41.62
2022-08-30T05:35:25.397Z,41.91
2022-08-30T05:37:54.038Z,42.15
2022-08-30T05:40:21.976Z,42.52
2022-08-30T05:43:14.785Z,42.94
2022-08-30T05:45:42.313Z,43.20
2022-08-30T05:48:09.841Z,43.69
2022-08-30T05:50:40.540Z,43.57
2022-08-30T05:53:08.022Z,44.25
2022-08-30T05:55:36.009Z,44.25
2022-08-30T05:58:03.574Z,44.49
2022-08-30T06:00:31.189Z,44.74
2022-08-30T06:02:59.052Z,45.21
2022-08-30T06:05:26.492Z,45.41
2022-08-30T06:07:53.942Z,45.27
2022-08-30T06:10:21.145Z,45.89
2022-08-30T06:12:48.585Z,46.03
2022-08-30T06:15:16.343Z,46.09
2022-08-30T06:17:43.706Z,46.34
2022-08-30T06:20:11.692Z,46.65
2022-08-30T06:22:39.168Z,46.98
2022-08-30T06:25:07.204Z,47.18
2022-08-30T06:27:34.611Z,47.25
2022-08-30T06:30:02.562Z,47.44
2022-08-30T06:32:30.156Z,47.66
2022-08-30T06:34:57.905Z,47.81
2022-08-30T06:37:29.781Z,47.89
2022-08-30T06:39:58.741Z,48.38
2022-08-30T06:42:32.443Z,48.65
2022-08-30T06:45:01.672Z,48.31
2022-08-30T06:47:31.492Z,48.48
2022-08-30T06:49:59.267Z,48.63
2022-08-30T06:52:27.123Z,48.37
2022-08-30T06:54:59.135Z,47.88
2022-08-30T06:57:26.918Z,48.01
2022-08-30T06:59:58.601Z,48.14
2022-08-30T07:02:26.611Z,48.05
2022-08-30T07:04:54.613Z,48.41
2022-08-30T07:07:22.162Z,48.81
2022-08-30T07:09:49.594Z,48.70
2022-08-30T07:12:17.791Z,47.01
2022-08-30T07:14:45.170Z,45.24
2022-08-30T07:17:34.507Z,43.62
2022-08-30T07:20:04.078Z,42.93
2022-08-30T07:22:33.994Z,41.79
2022-08-30T07:25:01.874Z,40.50
2022-08-30T07:27:31.695Z,39.63
2022-08-30T07:29:59.665Z,38.39
2022-08-30T07:32:27.182Z,39.84
2022-08-30T07:34:55.445Z,40.61
2022-08-30T07:37:23.154Z,41.05
2022-08-30T07:39:51.045Z,40.85
2022-08-30T07:42:18.644Z,40.77
2022-08-30T07:44:46.220Z,41.12
2022-08-30T07:47:13.526Z,41.10
2022-08-30T07:49:41.062Z,40.37
2022-08-30T07:52:08.986Z,40.15
2022-08-30T07:54:36.504Z,39.67
2022-08-30T07:57:04.217Z,38.83
2022-08-30T07:59:34.218Z,38.41
2022-08-30T08:02:04.155Z,38.76
2022-08-30T08:04:31.847Z,39.52
2022-08-30T08:06:59.225Z,39.39
2022-08-30T08:09:26.754Z,39.69
2022-08-30T08:11:54.341Z,39.59
2022-08-30T08:14:23.889Z,39.05
2022-08-30T08:16:51.294Z,38.58
2022-08-30T08:19:19.765Z,38.65
2022-08-30T08:21:48.632Z,38.15
2022-08-30T08:24:17.768Z,37.53
2022-08-30T08:26:45.466Z,36.36
2022-08-30T08:29:13.169Z,36.56
2022-08-30T08:31:41.866Z,36.11
2022-08-30T08:34:09.278Z,35.74
2022-08-30T08:36:36.920Z,34.62
2022-08-30T08:39:06.213Z,35.43
2022-08-30T08:41:42.508Z,35.23
2022-08-30T08:44:45.172Z,34.82
2022-08-30T08:47:47.694Z,34.39
2022-08-30T08:50:20.753Z,33.04
2022-08-30T08:53:06.688Z,33.37
2022-08-30T08:55:34.924Z,32.49
2022-08-30T08:58:03.092Z,32.17
2022-08-30T09:00:32.275Z,32.55
2022-08-30T09:03:04.553Z,32.39
2022-08-30T09:05:38.168Z,32.19
2022-08-30T09:08:10.211Z,31.95
2022-08-30T09:10:50.317Z,32.05
2022-08-30T09:13:22.751Z,31.90
2022-08-30T09:15:55.015Z,31.77
2022-08-30T09:18:45.599Z,31.49
2022-08-30T09:21:15.869Z,31.32
2022-08-30T09:23:56.430Z,31.15
2022-08-30T09:26:33.552Z,31.03
2022-08-30T09:29:01.276Z,31.04
2022-08-30T09:31:31.838Z,30.44
2022-08-30T09:34:06.107Z,30.72
2022-08-30T09:36:49.983Z,30.07
2022-08-30T09:39:33.797Z,30.45
2022-08-30T09:42:19.844Z,30.46
2022-08-30T09:44:47.611Z,30.55
2022-08-30T09:47:28.414Z,30.61
2022-08-30T09:50:24.199Z,30.94
2022-08-30T09:53:13.630Z,31.15
2022-08-30T09:55:41.320Z,31.43
2022-08-30T09:58:29.923Z,31.62
2022-08-30T10:01:13.339Z,31.75
2022-08-30T10:03:50.417Z,31.72
2022-08-30T10:06:44.826Z,31.82
2022-08-30T10:09:36.281Z,32.07
2022-08-30T10:12:36.932Z,32.22
2022-08-30T10:15:39.958Z,32.24
2022-08-30T10:18:27.392Z,32.21
2022-08-30T10:21:25.523Z,32.02
2022-08-30T10:24:06.634Z,31.62
2022-08-30T10:26:39.874Z,31.20
2022-08-30T10:29:13.326Z,31.19
2022-08-30T10:31:49.441Z,31.03
2022-08-30T10:34:26.653Z,30.94
2022-08-30T10:37:04.278Z,30.88
2022-08-30T10:39:42.604Z,30.43
2022-08-30T10:42:40.121Z,30.77
2022-08-30T10:45:15.573Z,30.72
2022-08-30T10:48:03.243Z,30.80
2022-08-30T10:50:41.275Z,30.84
2022-08-30T10:53:47.317Z,30.83
2022-08-30T10:56:20.765Z,30.84
2022-08-30T10:58:49.374Z,30.50
2022-08-30T11:01:46.484Z,30.74
2022-08-30T11:04:40.433Z,30.72
2022-08-30T11:07:31.087Z,30.47
2022-08-30T11:10:15.677Z,30.24
2022-08-30T11:13:04.251Z,30.10
2022-08-30T11:15:36.881Z,29.34
2022-08-30T11:18:10.606Z,29.87
2022-08-30T11:20:45.749Z,29.76
2022-08-30T11:23:19.729Z,29.60
2022-08-30T11:25:56.798Z,29.54
2022-08-30T11:28:38.101Z,29.41
2022-08-30T11:31:33.409Z,28.52
2022-08-30T11:34:01.292Z,29.24
2022-08-30T11:36:51.445Z,29.19
2022-08-30T11:39:49.509Z,28.44
2022-08-30T11:42:30.019Z,29.04
2022-08-30T11:45:28.129Z,28.91
2022-08-30T11:48:10.133Z,28.82
2022-08-30T11:50:59.783Z,28.83
2022-08-30T11:53:42.067Z,28.92
2022-08-30T11:56:27.955Z,28.97
2022-08-30T11:59:30.566Z,28.98
2022-08-30T12:02:00.418Z,29.05
2022-08-30T12:04:45.776Z,29.02
2022-08-30T12:07:53.547Z,28.83
2022-08-30T12:10:35.834Z,28.93
2022-08-30T12:13:03.826Z,28.87
2022-08-30T12:15:58.064Z,28.78
2022-08-30T12:18:33.302Z,28.10
2022-08-30T12:21:22.301Z,28.65
2022-08-30T12:24:25.141Z,28.66
2022-08-30T12:26:53.405Z,27.93
2022-08-30T12:29:27.061Z,28.61
2022-08-30T12:32:15.690Z,28.62
2022-08-30T12:34:43.811Z,28.54
2022-08-30T12:37:33.525Z,28.47
2022-08-30T12:40:19.659Z,28.49
2022-08-30T12:42:51.455Z,28.32
2022-08-30T12:45:22.187Z,28.46
2022-08-30T12:48:08.089Z,27.96
2022-08-30T12:50:59.444Z,28.48
2022-08-30T12:53:33.789Z,28.52
2022-08-30T12:56:05.657Z,28.09
2022-08-30T12:58:51.401Z,28.36
2022-08-30T13:01:36.237Z,28.34
2022-08-30T13:04:22.245Z,28.32
2022-08-30T13:06:59.257Z,28.29
2022-08-30T13:09:32.255Z,28.29
2022-08-30T13:12:07.751Z,27.87
2022-08-30T13:14:42.457Z,27.96
2022-08-30T13:17:23.546Z,27.70
2022-08-30T13:20:12.091Z,27.62
2022-08-30T13:22:42.427Z,27.40
2022-08-30T13:25:12.025Z,26.94
2022-08-30T13:27:40.190Z,26.96
2022-08-30T13:30:13.354Z,26.58
2022-08-30T13:32:41.126Z,26.76
2022-08-30T13:35:10.108Z,26.61
2022-08-30T13:37:49.775Z,26.51
2022-08-30T13:40:20.714Z,26.59
2022-08-30T13:42:49.354Z,26.59
2022-08-30T13:48:06.824Z,26.87
2022-08-30T13:50:34.650Z,27.06
2022-08-30T13:53:02.064Z,27.26
2022-08-30T13:55:30.138Z,26.86
2022-08-30T13:57:58.325Z,27.38
2022-08-30T14:00:26.744Z,27.26
2022-08-30T14:03:00.032Z,26.93
2022-08-30T14:05:52.685Z,27.24
2022-08-30T14:08:49.018Z,27.11
2022-08-30T14:11:19.518Z,27.01
2022-08-30T14:16:41.351Z,26.85
2022-08-30T14:19:12.944Z,26.82
2022-08-30T14:21:43.416Z,26.76
2022-08-30T14:24:20.057Z,26.75
2022-08-30T14:26:51.442Z,26.81
2022-08-30T14:29:24.401Z,26.83
2022-08-30T14:31:53.659Z,26.85
2022-08-30T14:34:35.325Z,26.86
2022-08-30T14:37:07.148Z,26.81
2022-08-30T14:39:48.540Z,26.69
2022-08-30T14:42:27.885Z,26.58
2022-08-30T14:44:59.899Z,26.41
2022-08-30T14:47:28.791Z,26.31
2022-08-30T14:50:02.590Z,26.20
2022-08-30T14:52:31.077Z,26.06
2022-08-30T14:55:05.219Z,25.96
2022-08-30T14:57:38.804Z,25.89
2022-08-30T15:00:07.891Z,25.85
2022-08-30T15:02:35.029Z,25.83
2022-08-30T15:05:02.649Z,25.82
2022-08-30T15:07:30.474Z,25.78
2022-08-30T15:09:57.590Z,25.72
2022-08-30T15:12:25.568Z,25.60
2022-08-30T15:14:52.731Z,25.53
2022-08-30T15:17:19.899Z,25.47
2022-08-30T15:19:47.680Z,25.39
2022-08-30T15:22:15.344Z,25.32
2022-08-30T15:24:43.690Z,25.25
2022-08-30T15:27:16.839Z,25.15
2022-08-30T15:29:44.344Z,25.01
2022-08-30T15:32:11.625Z,24.87
2022-08-30T15:34:39.246Z,24.74
2022-08-30T15:37:07.853Z,24.63
2022-08-30T15:39:35.108Z,24.53
2022-08-30T15:42:02.781Z,24.43
2022-08-30T15:44:31.600Z,24.34
2022-08-30T15:46:59.595Z,24.25
2022-08-30T15:49:27.182Z,24.18
2022-08-30T15:51:54.781Z,24.15
2022-08-30T15:54:35.001Z,24.12
2022-08-30T15:57:39.316Z,24.07
2022-08-30T16:00:49.857Z,24.01
2022-08-30T16:03:22.114Z,23.98
2022-08-30T16:05:58.733Z,23.93
2022-08-30T16:08:26.144Z,23.90
2022-08-30T16:10:53.640Z,23.85
2022-08-30T16:16:59.209Z,23.75
2022-08-30T16:19:29.332Z,23.66
2022-08-30T16:21:57.163Z,23.60
2022-08-30T16:24:26.064Z,23.55
2022-08-30T16:26:53.944Z,23.47
2022-08-30T16:29:21.163Z,23.39
2022-08-30T16:35:30.977Z,23.19
2022-08-30T16:38:19.247Z,23.14
2022-08-30T16:40:56.621Z,23.07
2022-08-30T16:43:27.298Z,23.02
2022-08-30T16:45:54.846Z,22.96
2022-08-30T16:48:22.046Z,22.92
2022-08-30T16:50:49.616Z,22.88
2022-08-30T16:53:16.885Z,22.84
2022-08-30T16:55:44.216Z,22.81
2022-08-30T16:58:26.658Z,22.80
2022-08-30T17:02:03.738Z,22.80
2022-08-30T17:05:06.850Z,22.79
2022-08-30T17:08:23.751Z,22.74
2022-08-30T17:22:19.587Z,22.60
2022-08-30T17:25:52.366Z,22.55
2022-08-30T17:28:21.863Z,22.50
2022-08-30T17:31:09.936Z,22.47
2022-08-30T17:33:46.938Z,22.43
2022-08-30T17:36:52.137Z,22.41
2022-08-30T17:39:31.986Z,22.37
2022-08-30T17:42:02.650Z,22.36
2022-08-30T17:44:31.878Z,22.32
2022-08-30T17:47:53.743Z,22.28
2022-08-30T17:50:23.541Z,22.24
2022-08-30T17:55:59.601Z,22.25
2022-08-30T17:58:27.625Z,22.29
2022-08-30T18:01:04.125Z,22.31
2022-08-30T18:03:39.212Z,22.29
2022-08-30T18:06:07.202Z,22.26
2022-08-30T18:08:35.401Z,22.26
2022-08-30T18:11:05.936Z,22.29
2022-08-30T18:13:33.578Z,22.34
2022-08-30T18:16:02.538Z,22.37
2022-08-30T18:18:30.513Z,22.39
2022-08-30T18:20:57.638Z,22.41
2022-08-30T18:23:25.037Z,22.43
2022-08-30T18:25:57.595Z,22.45
2022-08-30T18:28:24.849Z,22.43
2022-08-30T18:30:52.919Z,22.43
2022-08-30T18:33:21.031Z,22.44
2022-08-30T18:35:49.266Z,22.44
2022-08-30T18:38:17.002Z,22.15
2022-08-30T18:40:44.982Z,22.49
2022-08-30T18:43:12.797Z,22.48
2022-08-30T18:45:43.893Z,22.44
2022-08-30T18:48:11.821Z,22.38
2022-08-30T18:50:57.399Z,22.33
2022-08-30T18:53:29.059Z,22.29
2022-08-30T18:55:57.165Z,22.25
2022-08-30T18:58:24.440Z,22.21
2022-08-30T19:00:51.827Z,22.17
2022-08-30T19:03:19.216Z,22.14
2022-08-30T19:05:46.576Z,22.12
2022-08-30T19:08:14.217Z,22.09
2022-08-30T19:10:41.526Z,22.07
2022-08-30T19:13:10.339Z,22.04
2022-08-30T19:15:37.894Z,22.02
2022-08-30T19:18:16.822Z,21.99
2022-08-30T19:20:45.247Z,21.95
2022-08-30T19:23:13.087Z,21.90
2022-08-30T19:25:41.300Z,21.85
2022-08-30T19:28:09.466Z,21.81
2022-08-30T19:30:36.858Z,21.76
2022-08-30T19:33:04.299Z,21.73
2022-08-30T19:35:33.313Z,21.68
2022-08-30T19:38:00.915Z,21.64
2022-08-30T19:40:28.333Z,21.62
2022-08-30T19:42:56.188Z,21.62
2022-08-30T19:45:23.387Z,21.60
2022-08-30T19:47:51.116Z,21.60
2022-08-30T19:50:18.422Z,21.58
2022-08-30T19:52:52.705Z,21.57
2022-08-30T19:55:28.751Z,21.55
2022-08-30T19:57:57.466Z,21.54
2022-08-30T20:00:24.989Z,21.54
2022-08-30T20:02:52.538Z,21.54
2022-08-30T20:05:21.436Z,21.55
2022-08-30T20:07:51.165Z,21.56
2022-08-30T20:10:20.768Z,21.56
2022-08-30T20:12:53.441Z,21.61
2022-08-30T20:15:20.958Z,21.65
2022-08-30T20:18:05.878Z,21.65
2022-08-30T20:20:36.288Z,21.66
2022-08-30T20:23:04.693Z,21.64
2022-08-30T20:25:32.455Z,21.64
2022-08-30T20:28:00.868Z,21.65
2022-08-30T20:30:28.066Z,21.64
2022-08-30T20:32:55.335Z,21.62
2022-08-30T20:35:24.068Z,21.60
2022-08-30T20:37:51.169Z,21.58
2022-08-30T20:40:20.761Z,21.58
2022-08-30T20:42:48.305Z,21.57
2022-08-30T20:45:16.837Z,21.56
2022-08-30T20:47:44.414Z,21.59
2022-08-30T20:50:14.029Z,21.58
2022-08-30T20:52:41.712Z,21.56
2022-08-30T20:55:09.806Z,21.57
2022-08-30T20:57:38.497Z,21.56
2022-08-30T21:00:10.097Z,21.56
2022-08-30T21:02:38.028Z,21.55
2022-08-30T21:05:15.903Z,21.51
2022-08-30T21:07:45.023Z,21.50
2022-08-30T21:10:13.238Z,21.47
2022-08-30T21:12:43.232Z,21.45
2022-08-30T21:15:33.817Z,21.42
2022-08-30T21:18:01.702Z,21.40
2022-08-30T21:20:29.590Z,21.40
2022-08-30T21:23:16.226Z,21.38
2022-08-30T21:25:44.461Z,21.39
2022-08-30T21:28:12.034Z,21.42
2022-08-30T21:30:40.269Z,21.43
2022-08-30T21:33:08.671Z,21.48
2022-08-30T21:35:56.047Z,21.54
2022-08-30T21:38:24.935Z,21.57
2022-08-30T21:40:53.053Z,21.60
2022-08-30T21:43:21.992Z,21.64
2022-08-30T21:45:52.057Z,21.67
2022-08-30T21:48:20.015Z,21.68
2022-08-30T21:50:48.225Z,21.70
2022-08-30T21:53:17.182Z,21.73
2022-08-30T21:55:45.149Z,21.73
2022-08-30T21:58:13.108Z,21.71
2022-08-30T22:00:41.202Z,21.72
2022-08-30T22:03:09.150Z,21.73
2022-08-30T22:05:37.379Z,21.70
2022-08-30T22:08:05.136Z,21.68
2022-08-30T22:10:33.483Z,21.68
2022-08-30T22:13:01.786Z,21.67
2022-08-30T22:15:31.136Z,21.67
2022-08-30T22:17:58.799Z,21.64
2022-08-30T22:20:26.336Z,21.62
2022-08-30T22:22:58.388Z,21.56
2022-08-30T22:25:25.732Z,21.50
2022-08-30T22:27:53.353Z,21.42
2022-08-30T22:30:21.192Z,21.35
2022-08-30T22:32:48.429Z,21.30
2022-08-30T22:35:16.628Z,21.27
2022-08-30T22:37:47.787Z,21.22
2022-08-30T22:40:21.022Z,21.17
2022-08-30T22:42:48.908Z,21.12
2022-08-30T22:45:16.638Z,21.04
2022-08-30T22:47:44.139Z,20.96
2022-08-30T22:50:13.640Z,20.88
2022-08-30T22:52:41.466Z,20.83
2022-08-30T22:55:09.660Z,20.79
2022-08-30T22:57:39.109Z,20.73
2022-08-30T23:00:09.032Z,20.68
2022-08-30T23:02:37.091Z,20.64
2022-08-30T23:05:05.270Z,20.60
2022-08-30T23:07:32.594Z,20.57
2022-08-30T23:09:59.994Z,20.56
2022-08-30T23:12:28.051Z,20.52
2022-08-30T23:14:55.558Z,20.10
2022-08-30T23:17:23.042Z,20.44
2022-08-30T23:19:50.993Z,20.43
2022-08-30T23:22:18.506Z,20.41
2022-08-30T23:25:04.644Z,20.39
2022-08-30T23:27:59.018Z,20.37
2022-08-30T23:30:44.742Z,20.34
2022-08-30T23:33:30.829Z,20.31
2022-08-30T23:36:17.448Z,20.28
2022-08-30T23:39:02.938Z,20.25
2022-08-30T23:41:51.013Z,20.26
2022-08-30T23:44:36.696Z,20.24
2022-08-30T23:47:23.165Z,20.17
2022-08-30T23:50:08.746Z,20.12
2022-08-30T23:52:55.785Z,20.06
2022-08-30T23:55:41.968Z,20.01
2022-08-30T23:58:28.616Z,19.96
